Noni — V7LG4 — position and weather

sailwx.info

Track history (hours):
 
Tides and Currents Weather Stations Pressure Air Temp Water Temp Dewpoint Dewpoint Depression Visibility Wind Speed Wind Dir Waves Ship Positions

Noni

Last reported at 2018-Jun-19 04:30 UTC. Time now 2018-Jun-19 04:56 UTC.
Position N 36°52' W 023°18'.

Length 200 m; draft 13.1 m.

Type: Cargo ship. MMSI: 538006274.

Date/timePositionNaut miles runAvg speedWind from/ knotsBaromVisibWave heightAir tempDewpointWater temp
2018-Jun-19 04:30N 36°52' W 023°18'711.0
2018-Jun-19 03:53N 36°52' W 023°27'511.2
2018-Jun-19 03:29N 36°52' W 023°32'511.0
2018-Jun-19 03:00N 36°52' W 023°39'510.9
2018-Jun-19 02:30N 36°52' W 023°45'611.1
2018-Jun-19 02:00N 36°52' W 023°52'611.1
2018-Jun-19 01:30N 36°52' W 023°59'611.2
2018-Jun-19 01:00N 36°52' W 024°06'611.6
2018-Jun-19 00:30N 36°53' W 024°14'611.3
2018-Jun-19 00:00N 36°52' W 024°21'611.3
2018-Jun-18 23:30N 36°50' W 024°27'611.5
2018-Jun-18 23:00N 36°49' W 024°34'611.4
2018-Jun-18 22:30N 36°48' W 024°41'611.4
2018-Jun-18 22:00N 36°49' W 024°48'611.5
2018-Jun-18 21:30N 36°50' W 024°56'611.2
2018-Jun-18 21:01N 36°50' W 025°03'611.5
2018-Jun-18 20:30N 36°49' W 025°10'611.4
2018-Jun-18 20:00N 36°49' W 025°17'611.1
2018-Jun-18 19:31N 36°49' W 025°24'611.6
2018-Jun-18 19:00N 36°49' W 025°31'611.6
2018-Jun-18 18:30N 36°48' W 025°38'611.3
2018-Jun-18 18:01N 36°48' W 025°45'611.0
2018-Jun-18 17:30N 36°48' W 025°52'510.9
2018-Jun-18 17:00N 36°48' W 025°59'510.7
2018-Jun-18 16:30N 36°47' W 026°06'610.9
2018-Jun-18 15:58N 36°47' W 026°13'510.9
2018-Jun-18 15:29N 36°47' W 026°20'1310.7
2018-Jun-18 14:15N 36°46' W 026°36'410.9
2018-Jun-18 13:52N 36°46' W 026°41'411.0
2018-Jun-18 13:30N 36°46' W 026°46'611.2
2018-Jun-18 13:00N 36°45' W 026°53'611.1
2018-Jun-18 12:30N 36°45' W 027°00'510.8
2018-Jun-18 12:00N 36°45' W 027°07'611.2
2018-Jun-18 11:30N 36°44' W 027°14'610.9
2018-Jun-18 10:59N 36°44' W 027°21'612.0
2018-Jun-18 10:30N 36°44' W 027°28'612.1
2018-Jun-18 10:00N 36°43' W 027°36'811.9
2018-Jun-18 09:20N 36°43' W 027°46'411.2
2018-Jun-18 09:00N 36°42' W 027°50'711.3
2018-Jun-18 08:21N 36°42' W 027°59'411.4
2018-Jun-18 07:59N 36°42' W 028°05'511.3
2018-Jun-18 07:30N 36°41' W 028°11'611.4
2018-Jun-18 07:00N 36°41' W 028°18'611.8
2018-Jun-18 06:31N 36°41' W 028°26'611.7
2018-Jun-18 05:59N 36°40' W 028°34'611.8
2018-Jun-18 05:30N 36°40' W 028°41'711.9
2018-Jun-18 04:54N 36°39' W 028°49'511.6
2018-Jun-18 04:30N 36°39' W 028°55'611.3
2018-Jun-18 04:00N 36°38' W 029°02'611.3
2018-Jun-18 03:30N 36°38' W 029°09'611.6
2018-Jun-18 03:00N 36°38' W 029°17'611.5
2018-Jun-18 02:30N 36°37' W 029°24'811.5
2018-Jun-18 01:50N 36°36' W 029°33'511.4
2018-Jun-18 01:22N 36°36' W 029°40'511.4
2018-Jun-18 00:58N 36°36' W 029°45'711.5
2018-Jun-18 00:22N 36°35' W 029°54'511.6
2018-Jun-17 23:58N 36°35' W 029°60'911.3
2018-Jun-17 23:08N 36°33' W 030°11'1211.7
2018-Jun-17 22:06N 36°33' W 030°26'  
Track history (hours):
 
Tides and Currents Weather Stations Pressure Air Temp Water Temp Dewpoint Dewpoint Depression Visibility Wind Speed Wind Dir Waves Ship Positions

Noni

Last reported at 2018-Jun-19 04:30 UTC. Time now 2018-Jun-19 04:56 UTC.
Position N 36°52' W 023°18'.

Length 200 m; draft 13.1 m.

Type: Cargo ship. MMSI: 538006274.

Date/timePositionNaut miles runAvg speedWind from/ knotsBaromVisibWave heightAir tempDewpointWater temp
2018-Jun-19 04:30N 36°52' W 023°18'711.0
2018-Jun-19 03:53N 36°52' W 023°27'511.2
2018-Jun-19 03:29N 36°52' W 023°32'511.0
2018-Jun-19 03:00N 36°52' W 023°39'510.9
2018-Jun-19 02:30N 36°52' W 023°45'611.1
2018-Jun-19 02:00N 36°52' W 023°52'611.1
2018-Jun-19 01:30N 36°52' W 023°59'611.2
2018-Jun-19 01:00N 36°52' W 024°06'611.6
2018-Jun-19 00:30N 36°53' W 024°14'611.3
2018-Jun-19 00:00N 36°52' W 024°21'611.3
2018-Jun-18 23:30N 36°50' W 024°27'611.5
2018-Jun-18 23:00N 36°49' W 024°34'611.4
2018-Jun-18 22:30N 36°48' W 024°41'611.4
2018-Jun-18 22:00N 36°49' W 024°48'611.5
2018-Jun-18 21:30N 36°50' W 024°56'611.2
2018-Jun-18 21:01N 36°50' W 025°03'611.5
2018-Jun-18 20:30N 36°49' W 025°10'611.4
2018-Jun-18 20:00N 36°49' W 025°17'611.1
2018-Jun-18 19:31N 36°49' W 025°24'611.6
2018-Jun-18 19:00N 36°49' W 025°31'611.6
2018-Jun-18 18:30N 36°48' W 025°38'611.3
2018-Jun-18 18:01N 36°48' W 025°45'611.0
2018-Jun-18 17:30N 36°48' W 025°52'510.9
2018-Jun-18 17:00N 36°48' W 025°59'510.7
2018-Jun-18 16:30N 36°47' W 026°06'610.9
2018-Jun-18 15:58N 36°47' W 026°13'510.9
2018-Jun-18 15:29N 36°47' W 026°20'1310.7
2018-Jun-18 14:15N 36°46' W 026°36'410.9
2018-Jun-18 13:52N 36°46' W 026°41'411.0
2018-Jun-18 13:30N 36°46' W 026°46'611.2
2018-Jun-18 13:00N 36°45' W 026°53'611.1
2018-Jun-18 12:30N 36°45' W 027°00'510.8
2018-Jun-18 12:00N 36°45' W 027°07'611.2
2018-Jun-18 11:30N 36°44' W 027°14'610.9
2018-Jun-18 10:59N 36°44' W 027°21'612.0
2018-Jun-18 10:30N 36°44' W 027°28'612.1
2018-Jun-18 10:00N 36°43' W 027°36'811.9
2018-Jun-18 09:20N 36°43' W 027°46'411.2
2018-Jun-18 09:00N 36°42' W 027°50'711.3
2018-Jun-18 08:21N 36°42' W 027°59'411.4
2018-Jun-18 07:59N 36°42' W 028°05'511.3
2018-Jun-18 07:30N 36°41' W 028°11'611.4
2018-Jun-18 07:00N 36°41' W 028°18'611.8
2018-Jun-18 06:31N 36°41' W 028°26'611.7
2018-Jun-18 05:59N 36°40' W 028°34'611.8
2018-Jun-18 05:30N 36°40' W 028°41'711.9
2018-Jun-18 04:54N 36°39' W 028°49'511.6
2018-Jun-18 04:30N 36°39' W 028°55'611.3
2018-Jun-18 04:00N 36°38' W 029°02'611.3
2018-Jun-18 03:30N 36°38' W 029°09'611.6
2018-Jun-18 03:00N 36°38' W 029°17'611.5
2018-Jun-18 02:30N 36°37' W 029°24'811.5
2018-Jun-18 01:50N 36°36' W 029°33'511.4
2018-Jun-18 01:22N 36°36' W 029°40'511.4
2018-Jun-18 00:58N 36°36' W 029°45'711.5
2018-Jun-18 00:22N 36°35' W 029°54'511.6
2018-Jun-17 23:58N 36°35' W 029°60'911.3
2018-Jun-17 23:08N 36°33' W 030°11'1211.7
2018-Jun-17 22:06N 36°33' W 030°26'  

Dump ship's entire track history